sensor_id;sensor_type;location;lat;lon;timestamp;temperature;humidity
54461;DHT22;40371;49.414;11.010;2023-04-15T00:00:42;8.00;99.90
54461;DHT22;40371;49.414;11.010;2023-04-15T00:03:07;8.00;99.90
54461;DHT22;40371;49.414;11.010;2023-04-15T00:05:33;8.00;99.90
54461;DHT22;40371;49.414;11.010;2023-04-15T00:07:59;8.00;99.90
54461;DHT22;40371;49.414;11.010;2023-04-15T00:10:26;8.00;99.90
54461;DHT22;40371;49.414;11.010;2023-04-15T00:12:52;7.90;99.90
54461;DHT22;40371;49.414;11.010;2023-04-15T00:15:18;7.90;99.90
54461;DHT22;40371;49.414;11.010;2023-04-15T00:17:44;7.90;99.90
54461;DHT22;40371;49.414;11.010;2023-04-15T00:20:10;7.90;99.90
54461;DHT22;40371;49.414;11.010;2023-04-15T00:22:36;8.00;99.90
54461;DHT22;40371;49.414;11.010;2023-04-15T00:25:01;8.00;99.90
54461;DHT22;40371;49.414;11.010;2023-04-15T00:27:27;7.90;99.90
54461;DHT22;40371;49.414;11.010;2023-04-15T00:29:54;7.90;99.90
54461;DHT22;40371;49.414;11.010;2023-04-15T00:32:19;7.90;99.90
54461;DHT22;40371;49.414;11.010;2023-04-15T00:34:45;7.90;99.90
54461;DHT22;40371;49.414;11.010;2023-04-15T00:37:11;7.90;99.90
54461;DHT22;40371;49.414;11.010;2023-04-15T00:39:37;8.00;99.90
54461;DHT22;40371;49.414;11.010;2023-04-15T00:42:05;7.90;99.90
54461;DHT22;40371;49.414;11.010;2023-04-15T00:44:31;7.90;99.90
54461;DHT22;40371;49.414;11.010;2023-04-15T00:46:58;7.80;99.90
54461;DHT22;40371;49.414;11.010;2023-04-15T00:49:24;7.90;99.90
54461;DHT22;40371;49.414;11.010;2023-04-15T00:51:51;7.80;99.90
54461;DHT22;40371;49.414;11.010;2023-04-15T00:54:17;7.80;99.90
54461;DHT22;40371;49.414;11.010;2023-04-15T00:56:42;7.80;99.90
54461;DHT22;40371;49.414;11.010;2023-04-15T00:59:08;7.80;99.90
54461;DHT22;40371;49.414;11.010;2023-04-15T01:01:35;7.80;99.90
54461;DHT22;40371;49.414;11.010;2023-04-15T01:04:01;7.80;99.90
54461;DHT22;40371;49.414;11.010;2023-04-15T01:06:28;7.80;99.90
54461;DHT22;40371;49.414;11.010;2023-04-15T01:08:55;7.80;99.90
54461;DHT22;40371;49.414;11.010;2023-04-15T01:11:22;7.80;99.90
54461;DHT22;40371;49.414;11.010;2023-04-15T01:13:49;7.80;99.90
54461;DHT22;40371;49.414;11.010;2023-04-15T01:16:17;7.70;99.90
54461;DHT22;40371;49.414;11.010;2023-04-15T01:18:43;7.70;99.90
54461;DHT22;40371;49.414;11.010;2023-04-15T01:21:09;7.70;99.90
54461;DHT22;40371;49.414;11.010;2023-04-15T01:23:36;7.70;99.90
54461;DHT22;40371;49.414;11.010;2023-04-15T01:26:03;7.70;99.90
54461;DHT22;40371;49.414;11.010;2023-04-15T01:28:30;7.70;99.90
54461;DHT22;40371;49.414;11.010;2023-04-15T01:31:10;7.70;99.90
54461;DHT22;40371;49.414;11.010;2023-04-15T01:33:37;7.70;99.90
54461;DHT22;40371;49.414;11.010;2023-04-15T01:36:04;7.60;99.90
54461;DHT22;40371;49.414;11.010;2023-04-15T01:38:30;7.60;99.90
54461;DHT22;40371;49.414;11.010;2023-04-15T01:40:56;7.60;99.90
54461;DHT22;40371;49.414;11.010;2023-04-15T01:43:24;7.60;99.90
54461;DHT22;40371;49.414;11.010;2023-04-15T01:45:49;7.60;99.90
54461;DHT22;40371;49.414;11.010;2023-04-15T01:48:15;7.60;99.90
54461;DHT22;40371;49.414;11.010;2023-04-15T01:50:41;7.60;99.90
54461;DHT22;40371;49.414;11.010;2023-04-15T01:53:07;7.50;99.90
54461;DHT22;40371;49.414;11.010;2023-04-15T01:55:34;7.60;99.90
54461;DHT22;40371;49.414;11.010;2023-04-15T01:57:59;7.60;99.90
54461;DHT22;40371;49.414;11.010;2023-04-15T02:00:25;7.60;99.90
54461;DHT22;40371;49.414;11.010;2023-04-15T02:02:51;7.60;99.90
54461;DHT22;40371;49.414;11.010;2023-04-15T02:05:17;7.60;99.90
54461;DHT22;40371;49.414;11.010;2023-04-15T02:07:46;7.60;99.90
54461;DHT22;40371;49.414;11.010;2023-04-15T02:10:12;7.60;99.90
54461;DHT22;40371;49.414;11.010;2023-04-15T02:12:38;7.60;99.90
54461;DHT22;40371;49.414;11.010;2023-04-15T02:15:05;7.50;99.90
54461;DHT22;40371;49.414;11.010;2023-04-15T02:17:33;7.50;99.90
54461;DHT22;40371;49.414;11.010;2023-04-15T02:20:00;7.60;99.90
54461;DHT22;40371;49.414;11.010;2023-04-15T02:22:26;7.60;99.90
54461;DHT22;40371;49.414;11.010;2023-04-15T02:24:52;7.60;99.90
54461;DHT22;40371;49.414;11.010;2023-04-15T02:27:18;7.60;99.90
54461;DHT22;40371;49.414;11.010;2023-04-15T02:29:44;7.60;99.90
54461;DHT22;40371;49.414;11.010;2023-04-15T02:32:11;7.60;99.90
54461;DHT22;40371;49.414;11.010;2023-04-15T02:34:38;7.60;99.90
54461;DHT22;40371;49.414;11.010;2023-04-15T02:37:07;7.60;99.90
54461;DHT22;40371;49.414;11.010;2023-04-15T02:39:34;7.60;99.90
54461;DHT22;40371;49.414;11.010;2023-04-15T02:41:59;7.60;99.90
54461;DHT22;40371;49.414;11.010;2023-04-15T02:44:28;7.60;99.90
54461;DHT22;40371;49.414;11.010;2023-04-15T02:46:58;7.60;99.90
54461;DHT22;40371;49.414;11.010;2023-04-15T02:49:24;7.60;99.90
54461;DHT22;40371;49.414;11.010;2023-04-15T02:51:50;7.60;99.90
54461;DHT22;40371;49.414;11.010;2023-04-15T02:54:17;7.60;99.90
54461;DHT22;40371;49.414;11.010;2023-04-15T02:56:43;7.60;99.90
54461;DHT22;40371;49.414;11.010;2023-04-15T02:59:08;7.60;99.90
54461;DHT22;40371;49.414;11.010;2023-04-15T03:01:34;7.50;99.90
54461;DHT22;40371;49.414;11.010;2023-04-15T03:04:00;7.60;99.90
54461;DHT22;40371;49.414;11.010;2023-04-15T03:06:25;7.60;99.90
54461;DHT22;40371;49.414;11.010;2023-04-15T03:08:51;7.60;99.90
54461;DHT22;40371;49.414;11.010;2023-04-15T03:11:18;7.60;99.90
54461;DHT22;40371;49.414;11.010;2023-04-15T03:13:44;7.60;99.90
54461;DHT22;40371;49.414;11.010;2023-04-15T03:16:21;7.60;99.90
54461;DHT22;40371;49.414;11.010;2023-04-15T03:18:46;7.70;99.90
54461;DHT22;40371;49.414;11.010;2023-04-15T03:21:12;7.60;99.90
54461;DHT22;40371;49.414;11.010;2023-04-15T03:23:39;7.60;99.90
54461;DHT22;40371;49.414;11.010;2023-04-15T03:26:04;7.60;99.90
54461;DHT22;40371;49.414;11.010;2023-04-15T03:28:32;7.60;99.90
54461;DHT22;40371;49.414;11.010;2023-04-15T03:30:58;7.60;99.90
54461;DHT22;40371;49.414;11.010;2023-04-15T03:33:24;7.60;99.90
54461;DHT22;40371;49.414;11.010;2023-04-15T03:35:50;7.50;99.90
54461;DHT22;40371;49.414;11.010;2023-04-15T03:38:16;7.50;99.90
54461;DHT22;40371;49.414;11.010;2023-04-15T03:40:42;7.50;99.90
54461;DHT22;40371;49.414;11.010;2023-04-15T03:43:08;7.50;99.90
54461;DHT22;40371;49.414;11.010;2023-04-15T03:45:33;7.50;99.90
54461;DHT22;40371;49.414;11.010;2023-04-15T03:47:59;7.50;99.90
54461;DHT22;40371;49.414;11.010;2023-04-15T03:50:25;7.50;99.90
54461;DHT22;40371;49.414;11.010;2023-04-15T03:52:51;7.50;99.90
54461;DHT22;40371;49.414;11.010;2023-04-15T03:55:16;7.50;99.90
54461;DHT22;40371;49.414;11.010;2023-04-15T03:57:42;7.50;99.90
54461;DHT22;40371;49.414;11.010;2023-04-15T04:00:08;7.40;99.90
54461;DHT22;40371;49.414;11.010;2023-04-15T04:02:37;7.50;99.90
54461;DHT22;40371;49.414;11.010;2023-04-15T04:05:03;7.40;99.90
54461;DHT22;40371;49.414;11.010;2023-04-15T04:07:29;7.40;99.90
54461;DHT22;40371;49.414;11.010;2023-04-15T04:09:56;7.40;99.90
54461;DHT22;40371;49.414;11.010;2023-04-15T04:12:22;7.50;99.90
54461;DHT22;40371;49.414;11.010;2023-04-15T04:14:48;7.50;99.90
54461;DHT22;40371;49.414;11.010;2023-04-15T04:17:13;7.50;99.90
54461;DHT22;40371;49.414;11.010;2023-04-15T04:19:39;7.50;99.90
54461;DHT22;40371;49.414;11.010;2023-04-15T04:22:04;7.50;99.90
54461;DHT22;40371;49.414;11.010;2023-04-15T04:24:30;7.50;99.90
54461;DHT22;40371;49.414;11.010;2023-04-15T04:26:56;7.50;99.90
54461;DHT22;40371;49.414;11.010;2023-04-15T04:29:22;7.50;99.90
54461;DHT22;40371;49.414;11.010;2023-04-15T04:31:48;7.50;99.90
54461;DHT22;40371;49.414;11.010;2023-04-15T04:34:14;7.50;99.90
54461;DHT22;40371;49.414;11.010;2023-04-15T04:36:40;7.50;99.90
54461;DHT22;40371;49.414;11.010;2023-04-15T04:39:05;7.50;99.90
54461;DHT22;40371;49.414;11.010;2023-04-15T04:41:31;7.50;99.90
54461;DHT22;40371;49.414;11.010;2023-04-15T04:43:57;7.50;99.90
54461;DHT22;40371;49.414;11.010;2023-04-15T04:46:22;7.60;99.90
54461;DHT22;40371;49.414;11.010;2023-04-15T04:48:48;7.60;99.90
54461;DHT22;40371;49.414;11.010;2023-04-15T04:51:14;7.60;99.90
54461;DHT22;40371;49.414;11.010;2023-04-15T04:53:40;7.50;99.90
54461;DHT22;40371;49.414;11.010;2023-04-15T04:56:07;7.60;99.90
54461;DHT22;40371;49.414;11.010;2023-04-15T04:58:33;7.60;99.90
54461;DHT22;40371;49.414;11.010;2023-04-15T05:00:58;7.60;99.90
54461;DHT22;40371;49.414;11.010;2023-04-15T05:03:24;7.60;99.90
54461;DHT22;40371;49.414;11.010;2023-04-15T05:05:49;7.60;99.90
54461;DHT22;40371;49.414;11.010;2023-04-15T05:08:15;7.60;99.90
54461;DHT22;40371;49.414;11.010;2023-04-15T05:10:41;7.50;99.90
54461;DHT22;40371;49.414;11.010;2023-04-15T05:13:06;7.60;99.90
54461;DHT22;40371;49.414;11.010;2023-04-15T05:15:32;7.60;99.90
54461;DHT22;40371;49.414;11.010;2023-04-15T05:17:59;7.60;99.90
54461;DHT22;40371;49.414;11.010;2023-04-15T05:20:25;7.70;99.90
54461;DHT22;40371;49.414;11.010;2023-04-15T05:22:50;7.70;99.90
54461;DHT22;40371;49.414;11.010;2023-04-15T05:25:16;7.70;99.90
54461;DHT22;40371;49.414;11.010;2023-04-15T05:27:42;7.70;99.90
54461;DHT22;40371;49.414;11.010;2023-04-15T05:30:08;7.70;99.90
54461;DHT22;40371;49.414;11.010;2023-04-15T05:32:33;7.80;99.90
54461;DHT22;40371;49.414;11.010;2023-04-15T05:34:59;7.90;99.90
54461;DHT22;40371;49.414;11.010;2023-04-15T05:37:25;7.80;99.90
54461;DHT22;40371;49.414;11.010;2023-04-15T05:39:51;7.90;99.90
54461;DHT22;40371;49.414;11.010;2023-04-15T05:42:16;7.90;99.90
54461;DHT22;40371;49.414;11.010;2023-04-15T05:44:42;7.90;99.90
54461;DHT22;40371;49.414;11.010;2023-04-15T05:47:08;8.00;99.90
54461;DHT22;40371;49.414;11.010;2023-04-15T05:49:34;8.00;99.90
54461;DHT22;40371;49.414;11.010;2023-04-15T05:52:00;8.10;99.90
54461;DHT22;40371;49.414;11.010;2023-04-15T05:54:26;8.10;99.90
54461;DHT22;40371;49.414;11.010;2023-04-15T05:56:52;8.10;99.90
54461;DHT22;40371;49.414;11.010;2023-04-15T05:59:18;8.10;99.90
54461;DHT22;40371;49.414;11.010;2023-04-15T06:01:44;8.00;99.90
54461;DHT22;40371;49.414;11.010;2023-04-15T06:04:10;8.00;99.90
54461;DHT22;40371;49.414;11.010;2023-04-15T06:06:36;8.10;99.90
54461;DHT22;40371;49.414;11.010;2023-04-15T06:09:03;8.20;99.90
54461;DHT22;40371;49.414;11.010;2023-04-15T06:11:29;8.30;99.90
54461;DHT22;40371;49.414;11.010;2023-04-15T06:13:54;8.20;99.90
54461;DHT22;40371;49.414;11.010;2023-04-15T06:16:21;8.20;99.90
54461;DHT22;40371;49.414;11.010;2023-04-15T06:18:47;8.30;99.90
54461;DHT22;40371;49.414;11.010;2023-04-15T06:21:14;8.40;99.90
54461;DHT22;40371;49.414;11.010;2023-04-15T06:23:40;8.40;99.90
54461;DHT22;40371;49.414;11.010;2023-04-15T06:26:06;8.40;99.90
54461;DHT22;40371;49.414;11.010;2023-04-15T06:28:31;8.30;99.90
54461;DHT22;40371;49.414;11.010;2023-04-15T06:30:57;8.30;99.90
54461;DHT22;40371;49.414;11.010;2023-04-15T06:33:23;8.30;99.90
54461;DHT22;40371;49.414;11.010;2023-04-15T06:35:49;8.40;99.90
54461;DHT22;40371;49.414;11.010;2023-04-15T06:38:14;8.50;99.90
54461;DHT22;40371;49.414;11.010;2023-04-15T06:40:40;8.60;99.90
54461;DHT22;40371;49.414;11.010;2023-04-15T06:43:06;8.70;99.90
54461;DHT22;40371;49.414;11.010;2023-04-15T06:45:32;8.80;99.90
54461;DHT22;40371;49.414;11.010;2023-04-15T06:47:57;8.80;99.90
54461;DHT22;40371;49.414;11.010;2023-04-15T06:50:23;8.80;99.90
54461;DHT22;40371;49.414;11.010;2023-04-15T06:52:49;8.90;99.90
54461;DHT22;40371;49.414;11.010;2023-04-15T06:55:15;8.90;99.90
54461;DHT22;40371;49.414;11.010;2023-04-15T06:57:40;8.90;99.90
54461;DHT22;40371;49.414;11.010;2023-04-15T07:00:06;9.00;99.90
54461;DHT22;40371;49.414;11.010;2023-04-15T07:02:32;9.10;99.90
54461;DHT22;40371;49.414;11.010;2023-04-15T07:04:58;9.10;99.90
54461;DHT22;40371;49.414;11.010;2023-04-15T07:07:24;9.20;99.90
54461;DHT22;40371;49.414;11.010;2023-04-15T07:09:50;9.20;99.90
54461;DHT22;40371;49.414;11.010;2023-04-15T07:12:16;9.20;99.90
54461;DHT22;40371;49.414;11.010;2023-04-15T07:14:42;9.20;99.90
54461;DHT22;40371;49.414;11.010;2023-04-15T07:17:08;9.20;99.90
54461;DHT22;40371;49.414;11.010;2023-04-15T07:19:34;9.20;99.90
54461;DHT22;40371;49.414;11.010;2023-04-15T07:33:22;9.60;99.90
54461;DHT22;40371;49.414;11.010;2023-04-15T07:36:13;9.60;99.90
54461;DHT22;40371;49.414;11.010;2023-04-15T07:38:38;9.70;99.90
54461;DHT22;40371;49.414;11.010;2023-04-15T07:41:04;9.70;99.90
54461;DHT22;40371;49.414;11.010;2023-04-15T07:43:30;9.80;99.90
54461;DHT22;40371;49.414;11.010;2023-04-15T07:45:55;9.80;99.90
54461;DHT22;40371;49.414;11.010;2023-04-15T07:48:21;10.10;99.90
54461;DHT22;40371;49.414;11.010;2023-04-15T07:50:47;10.00;99.90
54461;DHT22;40371;49.414;11.010;2023-04-15T07:53:12;10.10;99.90
54461;DHT22;40371;49.414;11.010;2023-04-15T07:55:38;10.00;99.90
54461;DHT22;40371;49.414;11.010;2023-04-15T07:58:04;10.00;99.90
54461;DHT22;40371;49.414;11.010;2023-04-15T08:00:30;10.00;99.90
54461;DHT22;40371;49.414;11.010;2023-04-15T08:02:56;9.90;99.90
54461;DHT22;40371;49.414;11.010;2023-04-15T08:05:23;9.90;99.90
54461;DHT22;40371;49.414;11.010;2023-04-15T08:07:50;9.90;99.90
54461;DHT22;40371;49.414;11.010;2023-04-15T08:10:16;10.00;99.90
54461;DHT22;40371;49.414;11.010;2023-04-15T08:12:42;10.40;99.90
54461;DHT22;40371;49.414;11.010;2023-04-15T08:15:08;10.70;99.90
54461;DHT22;40371;49.414;11.010;2023-04-15T08:17:34;10.80;99.90
54461;DHT22;40371;49.414;11.010;2023-04-15T08:19:59;10.90;99.90
54461;DHT22;40371;49.414;11.010;2023-04-15T08:22:25;10.90;99.90
54461;DHT22;40371;49.414;11.010;2023-04-15T08:24:51;11.00;99.90
54461;DHT22;40371;49.414;11.010;2023-04-15T08:27:18;11.00;99.90
54461;DHT22;40371;49.414;11.010;2023-04-15T08:29:43;10.60;99.90
54461;DHT22;40371;49.414;11.010;2023-04-15T08:32:10;10.30;99.90
54461;DHT22;40371;49.414;11.010;2023-04-15T08:34:35;10.30;99.90
54461;DHT22;40371;49.414;11.010;2023-04-15T08:37:01;10.10;99.90
54461;DHT22;40371;49.414;11.010;2023-04-15T08:39:26;10.00;99.90
54461;DHT22;40371;49.414;11.010;2023-04-15T08:42:02;10.10;99.90
54461;DHT22;40371;49.414;11.010;2023-04-15T08:44:33;10.10;99.90
54461;DHT22;40371;49.414;11.010;2023-04-15T08:47:03;10.20;99.90
54461;DHT22;40371;49.414;11.010;2023-04-15T08:49:32;10.20;99.90
54461;DHT22;40371;49.414;11.010;2023-04-15T08:51:58;10.10;99.90
54461;DHT22;40371;49.414;11.010;2023-04-15T08:54:25;9.80;99.90
54461;DHT22;40371;49.414;11.010;2023-04-15T08:56:51;9.60;99.90
54461;DHT22;40371;49.414;11.010;2023-04-15T08:59:19;9.70;99.90
54461;DHT22;40371;49.414;11.010;2023-04-15T09:01:46;9.50;99.90
54461;DHT22;40371;49.414;11.010;2023-04-15T09:04:13;9.60;99.90
54461;DHT22;40371;49.414;11.010;2023-04-15T09:06:39;9.70;99.90
54461;DHT22;40371;49.414;11.010;2023-04-15T09:09:05;9.70;99.90
54461;DHT22;40371;49.414;11.010;2023-04-15T09:11:31;9.70;99.90
54461;DHT22;40371;49.414;11.010;2023-04-15T09:13:56;9.70;99.90
54461;DHT22;40371;49.414;11.010;2023-04-15T09:16:22;9.80;99.90
54461;DHT22;40371;49.414;11.010;2023-04-15T09:18:48;9.60;99.90
54461;DHT22;40371;49.414;11.010;2023-04-15T09:21:15;9.50;99.90
54461;DHT22;40371;49.414;11.010;2023-04-15T09:23:55;9.70;99.90
54461;DHT22;40371;49.414;11.010;2023-04-15T09:26:35;9.70;99.90
54461;DHT22;40371;49.414;11.010;2023-04-15T09:29:06;9.80;99.90
54461;DHT22;40371;49.414;11.010;2023-04-15T09:31:32;9.90;99.90
54461;DHT22;40371;49.414;11.010;2023-04-15T09:33:58;9.80;99.90
54461;DHT22;40371;49.414;11.010;2023-04-15T09:36:23;9.80;99.90
54461;DHT22;40371;49.414;11.010;2023-04-15T09:38:58;9.80;99.90
54461;DHT22;40371;49.414;11.010;2023-04-15T09:41:25;9.70;99.90
54461;DHT22;40371;49.414;11.010;2023-04-15T09:43:51;9.80;99.90
54461;DHT22;40371;49.414;11.010;2023-04-15T09:46:17;9.70;99.90
54461;DHT22;40371;49.414;11.010;2023-04-15T09:48:43;9.70;99.90
54461;DHT22;40371;49.414;11.010;2023-04-15T09:51:08;9.70;99.90
54461;DHT22;40371;49.414;11.010;2023-04-15T09:53:35;9.70;99.90
54461;DHT22;40371;49.414;11.010;2023-04-15T09:56:01;9.80;99.90
54461;DHT22;40371;49.414;11.010;2023-04-15T09:58:32;9.90;99.90
54461;DHT22;40371;49.414;11.010;2023-04-15T10:00:58;10.00;99.90
54461;DHT22;40371;49.414;11.010;2023-04-15T10:03:31;10.20;99.90
54461;DHT22;40371;49.414;11.010;2023-04-15T10:06:00;10.20;99.90
54461;DHT22;40371;49.414;11.010;2023-04-15T10:08:28;10.30;99.90
54461;DHT22;40371;49.414;11.010;2023-04-15T10:10:54;10.10;99.90
54461;DHT22;40371;49.414;11.010;2023-04-15T10:13:22;10.00;99.90
54461;DHT22;40371;49.414;11.010;2023-04-15T10:18:16;9.80;99.90
54461;DHT22;40371;49.414;11.010;2023-04-15T10:20:43;9.60;99.90
54461;DHT22;40371;49.414;11.010;2023-04-15T10:23:10;9.50;99.90
54461;DHT22;40371;49.414;11.010;2023-04-15T10:25:36;9.50;99.90
54461;DHT22;40371;49.414;11.010;2023-04-15T10:28:05;9.20;99.90
54461;DHT22;40371;49.414;11.010;2023-04-15T10:30:32;9.10;99.90
54461;DHT22;40371;49.414;11.010;2023-04-15T10:32:59;9.10;99.90
54461;DHT22;40371;49.414;11.010;2023-04-15T10:35:25;9.20;99.90
54461;DHT22;40371;49.414;11.010;2023-04-15T10:37:50;9.00;99.90
54461;DHT22;40371;49.414;11.010;2023-04-15T10:43:02;9.40;99.90
54461;DHT22;40371;49.414;11.010;2023-04-15T10:45:31;9.50;99.90
54461;DHT22;40371;49.414;11.010;2023-04-15T10:48:00;9.50;99.90
54461;DHT22;40371;49.414;11.010;2023-04-15T10:50:27;9.50;99.90
54461;DHT22;40371;49.414;11.010;2023-04-15T10:52:55;9.60;99.90
54461;DHT22;40371;49.414;11.010;2023-04-15T10:55:26;9.70;99.90
54461;DHT22;40371;49.414;11.010;2023-04-15T10:58:00;9.40;99.90
54461;DHT22;40371;49.414;11.010;2023-04-15T11:00:31;9.40;99.90
54461;DHT22;40371;49.414;11.010;2023-04-15T11:03:05;9.30;99.90
54461;DHT22;40371;49.414;11.010;2023-04-15T11:08:10;9.20;99.90
54461;DHT22;40371;49.414;11.010;2023-04-15T11:13:14;9.50;99.90
54461;DHT22;40371;49.414;11.010;2023-04-15T11:15:45;9.60;99.90
54461;DHT22;40371;49.414;11.010;2023-04-15T11:18:18;9.70;99.90
54461;DHT22;40371;49.414;11.010;2023-04-15T11:20:49;9.80;99.90
54461;DHT22;40371;49.414;11.010;2023-04-15T11:23:17;9.80;99.90
54461;DHT22;40371;49.414;11.010;2023-04-15T11:25:43;9.80;99.90
54461;DHT22;40371;49.414;11.010;2023-04-15T11:28:11;10.00;99.90
54461;DHT22;40371;49.414;11.010;2023-04-15T11:30:38;10.10;99.90
54461;DHT22;40371;49.414;11.010;2023-04-15T11:33:05;10.10;99.90
54461;DHT22;40371;49.414;11.010;2023-04-15T11:35:31;10.20;99.90
54461;DHT22;40371;49.414;11.010;2023-04-15T11:37:57;10.20;99.90
54461;DHT22;40371;49.414;11.010;2023-04-15T11:40:28;9.90;99.90
54461;DHT22;40371;49.414;11.010;2023-04-15T11:43:17;9.80;99.90
54461;DHT22;40371;49.414;11.010;2023-04-15T11:48:17;9.80;99.90
54461;DHT22;40371;49.414;11.010;2023-04-15T11:50:43;9.60;99.90
54461;DHT22;40371;49.414;11.010;2023-04-15T11:53:11;9.60;99.90
54461;DHT22;40371;49.414;11.010;2023-04-15T11:58:16;9.70;99.90
54461;DHT22;40371;49.414;11.010;2023-04-15T12:00:58;9.80;99.90
54461;DHT22;40371;49.414;11.010;2023-04-15T12:03:43;9.70;99.90
54461;DHT22;40371;49.414;11.010;2023-04-15T12:06:17;9.90;99.90
54461;DHT22;40371;49.414;11.010;2023-04-15T12:11:36;9.80;99.90
54461;DHT22;40371;49.414;11.010;2023-04-15T12:16:37;9.70;99.90
54461;DHT22;40371;49.414;11.010;2023-04-15T12:19:12;9.80;99.90
54461;DHT22;40371;49.414;11.010;2023-04-15T12:21:41;9.80;99.90
54461;DHT22;40371;49.414;11.010;2023-04-15T12:24:09;9.70;99.90
54461;DHT22;40371;49.414;11.010;2023-04-15T12:26:53;9.90;99.90
54461;DHT22;40371;49.414;11.010;2023-04-15T12:29:23;10.00;99.90
54461;DHT22;40371;49.414;11.010;2023-04-15T12:31:51;10.00;99.90
54461;DHT22;40371;49.414;11.010;2023-04-15T12:34:24;9.80;99.90
54461;DHT22;40371;49.414;11.010;2023-04-15T12:36:51;9.70;99.90
54461;DHT22;40371;49.414;11.010;2023-04-15T12:39:16;9.60;99.90
54461;DHT22;40371;49.414;11.010;2023-04-15T12:41:42;9.70;99.90
54461;DHT22;40371;49.414;11.010;2023-04-15T12:44:07;9.70;99.90
54461;DHT22;40371;49.414;11.010;2023-04-15T12:46:33;9.70;99.90
54461;DHT22;40371;49.414;11.010;2023-04-15T12:48:59;9.60;99.90
54461;DHT22;40371;49.414;11.010;2023-04-15T12:51:24;9.70;99.90
54461;DHT22;40371;49.414;11.010;2023-04-15T12:53:51;10.00;99.90
54461;DHT22;40371;49.414;11.010;2023-04-15T12:56:17;9.90;99.90
54461;DHT22;40371;49.414;11.010;2023-04-15T12:58:43;10.00;99.90
54461;DHT22;40371;49.414;11.010;2023-04-15T13:01:09;9.90;99.90
54461;DHT22;40371;49.414;11.010;2023-04-15T13:03:35;9.80;99.90
54461;DHT22;40371;49.414;11.010;2023-04-15T13:06:00;9.70;99.90
54461;DHT22;40371;49.414;11.010;2023-04-15T13:08:26;9.70;99.90
54461;DHT22;40371;49.414;11.010;2023-04-15T13:10:52;9.80;99.90
54461;DHT22;40371;49.414;11.010;2023-04-15T13:13:18;9.80;99.90
54461;DHT22;40371;49.414;11.010;2023-04-15T13:15:43;9.90;99.90
54461;DHT22;40371;49.414;11.010;2023-04-15T13:18:10;9.80;99.90
54461;DHT22;40371;49.414;11.010;2023-04-15T13:20:35;9.80;99.90
54461;DHT22;40371;49.414;11.010;2023-04-15T13:23:01;9.70;99.90
54461;DHT22;40371;49.414;11.010;2023-04-15T13:25:27;9.70;99.90
54461;DHT22;40371;49.414;11.010;2023-04-15T13:27:53;9.80;99.90
54461;DHT22;40371;49.414;11.010;2023-04-15T13:30:18;9.70;99.90
54461;DHT22;40371;49.414;11.010;2023-04-15T13:32:44;9.70;99.90
54461;DHT22;40371;49.414;11.010;2023-04-15T13:35:09;9.70;99.90
54461;DHT22;40371;49.414;11.010;2023-04-15T13:37:35;9.70;99.90
54461;DHT22;40371;49.414;11.010;2023-04-15T13:40:01;9.90;99.90
54461;DHT22;40371;49.414;11.010;2023-04-15T13:42:27;10.00;99.90
54461;DHT22;40371;49.414;11.010;2023-04-15T13:44:52;9.90;99.90
54461;DHT22;40371;49.414;11.010;2023-04-15T13:47:18;9.90;99.90
54461;DHT22;40371;49.414;11.010;2023-04-15T13:49:44;9.90;99.90
54461;DHT22;40371;49.414;11.010;2023-04-15T13:52:11;9.90;99.90
54461;DHT22;40371;49.414;11.010;2023-04-15T13:54:37;10.00;99.90
54461;DHT22;40371;49.414;11.010;2023-04-15T13:57:03;10.10;99.90
54461;DHT22;40371;49.414;11.010;2023-04-15T13:59:29;10.10;99.90
54461;DHT22;40371;49.414;11.010;2023-04-15T14:01:54;9.90;99.90
54461;DHT22;40371;49.414;11.010;2023-04-15T14:04:20;10.00;99.90
54461;DHT22;40371;49.414;11.010;2023-04-15T14:06:46;10.00;99.90
54461;DHT22;40371;49.414;11.010;2023-04-15T14:09:11;9.90;99.90
54461;DHT22;40371;49.414;11.010;2023-04-15T14:11:37;9.90;99.90
54461;DHT22;40371;49.414;11.010;2023-04-15T14:14:04;9.80;99.90
54461;DHT22;40371;49.414;11.010;2023-04-15T14:16:31;9.70;99.90
54461;DHT22;40371;49.414;11.010;2023-04-15T14:18:57;9.70;99.90
54461;DHT22;40371;49.414;11.010;2023-04-15T14:21:23;9.60;99.90
54461;DHT22;40371;49.414;11.010;2023-04-15T14:23:48;9.60;99.90
54461;DHT22;40371;49.414;11.010;2023-04-15T14:26:14;9.60;99.90
54461;DHT22;40371;49.414;11.010;2023-04-15T14:28:40;9.50;99.90
54461;DHT22;40371;49.414;11.010;2023-04-15T14:31:07;9.40;99.90
54461;DHT22;40371;49.414;11.010;2023-04-15T14:33:32;9.40;99.90
54461;DHT22;40371;49.414;11.010;2023-04-15T14:35:58;9.30;99.90
54461;DHT22;40371;49.414;11.010;2023-04-15T14:38:24;9.20;99.90
54461;DHT22;40371;49.414;11.010;2023-04-15T14:40:49;9.20;99.90
54461;DHT22;40371;49.414;11.010;2023-04-15T14:43:15;9.20;99.90
54461;DHT22;40371;49.414;11.010;2023-04-15T14:45:41;9.10;99.90
54461;DHT22;40371;49.414;11.010;2023-04-15T14:48:08;9.00;99.90
54461;DHT22;40371;49.414;11.010;2023-04-15T14:50:34;9.10;99.90
54461;DHT22;40371;49.414;11.010;2023-04-15T14:53:00;9.10;99.90
54461;DHT22;40371;49.414;11.010;2023-04-15T14:55:26;9.10;99.90
54461;DHT22;40371;49.414;11.010;2023-04-15T14:57:51;9.10;99.90
54461;DHT22;40371;49.414;11.010;2023-04-15T15:00:17;9.10;99.90
54461;DHT22;40371;49.414;11.010;2023-04-15T15:02:43;9.10;99.90
54461;DHT22;40371;49.414;11.010;2023-04-15T15:05:09;9.10;99.90
54461;DHT22;40371;49.414;11.010;2023-04-15T15:07:36;9.00;99.90
54461;DHT22;40371;49.414;11.010;2023-04-15T15:10:02;9.00;99.90
54461;DHT22;40371;49.414;11.010;2023-04-15T15:12:28;9.00;99.90
54461;DHT22;40371;49.414;11.010;2023-04-15T15:14:56;9.00;99.90
54461;DHT22;40371;49.414;11.010;2023-04-15T15:17:22;9.00;99.90
54461;DHT22;40371;49.414;11.010;2023-04-15T15:19:47;9.10;99.90
54461;DHT22;40371;49.414;11.010;2023-04-15T15:22:13;9.10;99.90
54461;DHT22;40371;49.414;11.010;2023-04-15T15:24:39;9.00;99.90
54461;DHT22;40371;49.414;11.010;2023-04-15T15:27:04;9.00;99.90
54461;DHT22;40371;49.414;11.010;2023-04-15T15:29:30;9.00;99.90
54461;DHT22;40371;49.414;11.010;2023-04-15T15:31:55;9.00;99.90
54461;DHT22;40371;49.414;11.010;2023-04-15T15:34:21;9.00;99.90
54461;DHT22;40371;49.414;11.010;2023-04-15T15:36:47;9.10;99.90
54461;DHT22;40371;49.414;11.010;2023-04-15T15:39:12;9.10;99.90
54461;DHT22;40371;49.414;11.010;2023-04-15T15:41:38;9.10;99.90
54461;DHT22;40371;49.414;11.010;2023-04-15T15:44:04;9.00;99.90
54461;DHT22;40371;49.414;11.010;2023-04-15T15:46:29;8.90;99.90
54461;DHT22;40371;49.414;11.010;2023-04-15T15:48:58;8.80;99.90
54461;DHT22;40371;49.414;11.010;2023-04-15T15:51:23;8.70;99.90
54461;DHT22;40371;49.414;11.010;2023-04-15T15:53:51;8.70;99.90
54461;DHT22;40371;49.414;11.010;2023-04-15T15:56:16;8.70;99.90
54461;DHT22;40371;49.414;11.010;2023-04-15T15:58:42;8.70;99.90